createdAt,value
2018-10-05T00:00:39.614Z,8.83
2018-10-05T00:03:08.392Z,8.68
2018-10-05T00:05:36.640Z,8.50
2018-10-05T00:08:04.909Z,8.93
2018-10-05T00:10:33.201Z,8.55
2018-10-05T00:13:01.556Z,8.53
2018-10-05T00:15:29.971Z,8.58
2018-10-05T00:17:58.345Z,8.70
2018-10-05T00:20:26.624Z,9.43
2018-10-05T00:22:54.988Z,8.70
2018-10-05T00:25:24.302Z,8.38
2018-10-05T00:27:52.695Z,7.42
2018-10-05T00:30:21.086Z,9.90
2018-10-05T00:32:49.395Z,8.08
2018-10-05T00:35:17.683Z,8.70
2018-10-05T00:37:45.994Z,9.20
2018-10-05T00:40:14.303Z,7.90
2018-10-05T00:42:42.568Z,8.35
2018-10-05T00:45:11.760Z,8.55
2018-10-05T00:47:40.067Z,8.70
2018-10-05T00:50:08.433Z,18.42
2018-10-05T00:52:36.712Z,13.55
2018-10-05T00:55:05.240Z,11.75
2018-10-05T00:57:33.548Z,10.20
2018-10-05T01:00:01.850Z,8.80
2018-10-05T01:02:30.208Z,10.65
2018-10-05T01:04:58.499Z,8.55
2018-10-05T01:07:26.906Z,10.10
2018-10-05T01:09:55.437Z,10.50
2018-10-05T01:12:23.739Z,9.90
2018-10-05T01:14:58.753Z,10.08
2018-10-05T01:17:27.175Z,9.95
2018-10-05T01:19:55.496Z,8.75
2018-10-05T01:22:24.075Z,8.48
2018-10-05T01:24:52.686Z,9.28
2018-10-05T01:27:21.011Z,9.30
2018-10-05T01:29:49.494Z,8.70
2018-10-05T01:32:18.065Z,9.20
2018-10-05T01:34:46.352Z,8.90
2018-10-05T01:37:14.681Z,9.20
2018-10-05T01:39:42.997Z,10.35
2018-10-05T01:42:11.473Z,9.50
2018-10-05T01:44:39.842Z,9.10
2018-10-05T01:47:08.257Z,9.83
2018-10-05T01:49:36.576Z,8.73
2018-10-05T01:52:04.980Z,9.33
2018-10-05T01:54:33.280Z,9.55
2018-10-05T01:57:01.655Z,10.03
2018-10-05T01:59:29.951Z,9.35
2018-10-05T02:01:58.312Z,9.60
2018-10-05T02:04:26.650Z,10.60
2018-10-05T02:06:55.002Z,9.73
2018-10-05T02:09:23.316Z,8.73
2018-10-05T02:11:51.603Z,9.03
2018-10-05T02:14:20.047Z,9.85
2018-10-05T02:16:48.400Z,9.70
2018-10-05T02:19:16.936Z,10.30
2018-10-05T02:21:45.340Z,9.53
2018-10-05T02:24:13.682Z,9.40
2018-10-05T02:26:42.064Z,8.85
2018-10-05T02:29:10.381Z,11.93
2018-10-05T02:31:38.709Z,10.43
2018-10-05T02:34:07.172Z,11.35
2018-10-05T02:36:35.644Z,12.18
2018-10-05T02:39:05.088Z,11.03
2018-10-05T02:41:33.506Z,11.35
2018-10-05T02:44:01.774Z,10.40
2018-10-05T02:46:30.196Z,11.35
2018-10-05T02:48:58.750Z,10.68
2018-10-05T02:51:27.092Z,10.48
2018-10-05T02:53:55.384Z,9.70
2018-10-05T02:56:24.072Z,11.20
2018-10-05T02:58:52.379Z,9.73
2018-10-05T03:01:32.092Z,10.88
2018-10-05T03:04:00.420Z,10.43
2018-10-05T03:06:28.931Z,10.45
2018-10-05T03:08:57.193Z,9.85
2018-10-05T03:11:25.681Z,9.23
2018-10-05T03:13:54.018Z,9.58
2018-10-05T03:16:22.377Z,9.28
2018-10-05T03:18:50.811Z,9.80
2018-10-05T03:21:19.183Z,9.45
2018-10-05T03:23:48.355Z,10.20
2018-10-05T03:26:16.666Z,9.88
2018-10-05T03:28:44.993Z,10.00
2018-10-05T03:31:13.385Z,10.88
2018-10-05T03:33:41.710Z,9.58
2018-10-05T03:36:10.039Z,10.90
2018-10-05T03:38:38.387Z,9.90
2018-10-05T03:41:06.785Z,10.93
2018-10-05T03:43:35.069Z,11.00
2018-10-05T03:46:03.442Z,10.23
2018-10-05T03:48:31.770Z,10.30
2018-10-05T03:51:00.211Z,11.05
2018-10-05T03:53:28.511Z,10.20
2018-10-05T03:55:56.870Z,11.15
2018-10-05T03:58:25.269Z,10.00
2018-10-05T04:00:53.676Z,9.75
2018-10-05T04:03:21.900Z,11.35
2018-10-05T04:05:50.289Z,11.45
2018-10-05T04:08:18.577Z,9.55
2018-10-05T04:10:46.889Z,10.68
2018-10-05T04:13:15.235Z,9.93
2018-10-05T04:15:43.498Z,9.95
2018-10-05T04:18:11.872Z,10.08
2018-10-05T04:20:40.209Z,10.05
2018-10-05T04:23:08.665Z,10.60
2018-10-05T04:25:36.953Z,10.85
2018-10-05T04:28:05.357Z,11.20
2018-10-05T04:30:33.776Z,12.07
2018-10-05T04:33:02.059Z,10.88
2018-10-05T04:35:30.457Z,10.10
2018-10-05T04:37:58.709Z,10.65
2018-10-05T04:40:27.061Z,11.40
2018-10-05T04:42:55.380Z,11.20
2018-10-05T04:45:23.844Z,11.25
2018-10-05T04:47:52.240Z,10.58
2018-10-05T04:50:21.221Z,10.98
2018-10-05T04:52:49.689Z,11.25
2018-10-05T04:55:18.172Z,12.07
2018-10-05T04:57:46.690Z,10.72
2018-10-05T05:00:15.121Z,10.38
2018-10-05T05:02:43.413Z,10.38
2018-10-05T05:05:11.702Z,10.53
2018-10-05T05:07:40.197Z,11.15
2018-10-05T05:10:08.644Z,10.65
2018-10-05T05:12:36.984Z,12.65
2018-10-05T05:15:06.210Z,12.25
2018-10-05T05:17:34.743Z,15.15
2018-10-05T05:20:03.201Z,16.85
2018-10-05T05:22:31.663Z,19.40
2018-10-05T05:24:59.977Z,20.72
2018-10-05T05:27:28.395Z,19.17
2018-10-05T05:29:56.828Z,15.43
2018-10-05T05:32:25.208Z,16.32
2018-10-05T05:34:53.502Z,13.15
2018-10-05T05:37:21.852Z,11.65
2018-10-05T05:39:50.417Z,13.10
2018-10-05T05:42:18.740Z,11.73
2018-10-05T05:44:47.514Z,11.70
2018-10-05T05:47:15.798Z,11.70
2018-10-05T05:49:44.072Z,13.88
2018-10-05T05:52:12.414Z,14.68
2018-10-05T05:54:40.718Z,12.05
2018-10-05T05:57:09.205Z,13.18
2018-10-05T05:59:37.482Z,13.88
2018-10-05T06:02:05.967Z,14.43
2018-10-05T06:04:34.550Z,14.25
2018-10-05T06:07:02.977Z,12.90
2018-10-05T06:09:31.580Z,14.35
2018-10-05T06:12:00.147Z,13.58
2018-10-05T06:14:28.451Z,12.55
2018-10-05T06:16:56.809Z,12.40
2018-10-05T06:19:25.340Z,11.35
2018-10-05T06:21:53.945Z,11.40
2018-10-05T06:24:22.242Z,11.70
2018-10-05T06:26:50.653Z,10.75
2018-10-05T06:29:19.042Z,11.95
2018-10-05T06:31:47.347Z,10.95
2018-10-05T06:34:15.734Z,12.18
2018-10-05T06:36:44.240Z,11.97
2018-10-05T06:39:12.755Z,12.65
2018-10-05T06:41:41.288Z,13.25
2018-10-05T06:44:09.622Z,12.30
2018-10-05T06:46:38.269Z,13.15
2018-10-05T06:49:06.780Z,13.32
2018-10-05T06:51:35.207Z,15.32
2018-10-05T06:54:03.547Z,13.70
2018-10-05T06:56:31.956Z,14.35
2018-10-05T06:59:00.376Z,13.93
2018-10-05T07:01:29.317Z,13.75
2018-10-05T07:03:57.657Z,14.07
2018-10-05T07:06:26.006Z,13.68
2018-10-05T07:08:54.862Z,13.68
2018-10-05T07:11:24.196Z,13.30
2018-10-05T07:13:52.583Z,17.02
2018-10-05T07:16:21.076Z,23.25
2018-10-05T07:18:49.393Z,15.25
2018-10-05T07:21:17.863Z,14.13
2018-10-05T07:23:46.048Z,14.50
2018-10-05T07:26:14.393Z,16.52
2018-10-05T07:28:42.802Z,13.40
2018-10-05T07:31:10.968Z,14.03
2018-10-05T07:33:39.220Z,12.98
2018-10-05T07:36:07.720Z,14.73
2018-10-05T07:38:36.040Z,14.15
2018-10-05T07:41:04.328Z,13.93
2018-10-05T07:43:32.635Z,14.53
2018-10-05T07:46:00.917Z,13.87
2018-10-05T07:48:29.266Z,13.78
2018-10-05T07:50:57.633Z,18.23
2018-10-05T07:53:25.932Z,20.60
2018-10-05T07:55:54.278Z,14.63
2018-10-05T07:58:22.590Z,14.43
2018-10-05T08:00:51.617Z,16.20
2018-10-05T08:03:19.981Z,15.60
2018-10-05T08:05:48.284Z,15.30
2018-10-05T08:08:16.587Z,14.10
2018-10-05T08:10:44.943Z,14.27
2018-10-05T08:13:13.256Z,15.50
2018-10-05T08:15:41.569Z,16.80
2018-10-05T08:18:09.870Z,14.90
2018-10-05T08:20:38.168Z,15.60
2018-10-05T08:23:06.679Z,14.63
2018-10-05T08:25:35.057Z,14.63
2018-10-05T08:28:03.350Z,14.30
2018-10-05T08:30:31.892Z,15.33
2018-10-05T08:33:00.233Z,14.57
2018-10-05T08:35:28.729Z,14.20
2018-10-05T08:37:57.298Z,13.37
2018-10-05T08:40:26.026Z,12.37
2018-10-05T08:42:54.437Z,14.43
2018-10-05T08:45:22.762Z,15.60
2018-10-05T08:47:51.221Z,14.67
2018-10-05T08:50:19.574Z,15.63
2018-10-05T08:52:48.080Z,14.60
2018-10-05T08:55:16.396Z,15.63
2018-10-05T08:57:44.702Z,16.30
2018-10-05T09:00:13.074Z,15.60
2018-10-05T09:02:41.537Z,14.00
2018-10-05T09:05:09.829Z,14.93
2018-10-05T09:07:38.212Z,15.63
2018-10-05T09:10:06.898Z,14.90
2018-10-05T09:12:35.187Z,13.63
2018-10-05T09:15:03.496Z,17.63
2018-10-05T09:17:31.769Z,21.70
2018-10-05T09:20:00.293Z,16.50
2018-10-05T09:22:28.734Z,15.17
2018-10-05T09:24:57.088Z,13.83
2018-10-05T09:27:25.632Z,15.53
2018-10-05T09:29:54.104Z,13.40
2018-10-05T09:32:22.471Z,15.10
2018-10-05T09:34:50.864Z,15.10
2018-10-05T09:37:19.324Z,14.80
2018-10-05T09:39:47.610Z,15.60
2018-10-05T09:42:15.927Z,14.90
2018-10-05T09:44:44.427Z,13.93
2018-10-05T09:47:12.713Z,14.23
2018-10-05T09:49:41.038Z,15.63
2018-10-05T09:52:09.401Z,16.40
2018-10-05T09:54:37.641Z,15.10
2018-10-05T09:57:05.949Z,14.17
2018-10-05T09:59:34.249Z,16.03
2018-10-05T10:02:07.909Z,13.97
2018-10-05T10:04:36.244Z,13.70
2018-10-05T10:07:04.931Z,14.90
2018-10-05T10:09:33.285Z,15.07
2018-10-05T10:12:01.720Z,15.63
2018-10-05T10:14:29.997Z,11.93
2018-10-05T10:16:58.287Z,13.90
2018-10-05T10:19:26.605Z,13.13
2018-10-05T10:21:55.163Z,13.80
2018-10-05T10:24:23.519Z,15.60
2018-10-05T10:26:51.906Z,13.67
2018-10-05T10:29:20.329Z,14.50
2018-10-05T10:31:48.660Z,14.67
2018-10-05T10:34:17.758Z,13.50
2018-10-05T10:36:46.167Z,13.43
2018-10-05T10:39:14.513Z,13.00
2018-10-05T10:41:42.850Z,12.77
2018-10-05T10:44:11.092Z,15.67
2018-10-05T10:46:39.538Z,14.00
2018-10-05T10:49:08.186Z,14.13
2018-10-05T10:51:36.456Z,13.37
2018-10-05T10:54:04.843Z,12.53
2018-10-05T10:56:33.262Z,12.90
2018-10-05T10:59:01.572Z,12.97
2018-10-05T11:01:30.670Z,12.80
2018-10-05T11:03:59.095Z,11.77
2018-10-05T11:06:27.411Z,12.40
2018-10-05T11:08:55.769Z,13.00
2018-10-05T11:11:24.084Z,13.87
2018-10-05T11:13:52.536Z,11.90
2018-10-05T11:16:20.886Z,12.13
2018-10-05T11:18:49.227Z,12.53
2018-10-05T11:21:17.635Z,12.80
2018-10-05T11:23:45.953Z,11.70
2018-10-05T11:26:14.349Z,13.73
2018-10-05T11:28:42.742Z,12.40
2018-10-05T11:31:11.091Z,11.90
2018-10-05T11:33:39.447Z,13.80
2018-10-05T11:36:07.832Z,11.17
2018-10-05T11:38:36.091Z,12.63
2018-10-05T11:41:04.855Z,12.80
2018-10-05T11:43:33.231Z,11.77
2018-10-05T11:46:01.548Z,12.70
2018-10-05T11:48:29.869Z,11.70
2018-10-05T11:50:58.193Z,12.50
2018-10-05T11:53:26.713Z,12.90
2018-10-05T11:55:55.011Z,12.70
2018-10-05T11:58:44.085Z,12.73
2018-10-05T12:01:13.062Z,11.17
2018-10-05T12:03:41.450Z,10.97
2018-10-05T12:06:09.781Z,10.83
2018-10-05T12:08:38.075Z,8.63
2018-10-05T12:11:06.404Z,12.80
2018-10-05T12:13:34.821Z,10.37
2018-10-05T12:16:03.128Z,9.90
2018-10-05T12:18:32.406Z,10.57
2018-10-05T12:21:00.759Z,10.77
2018-10-05T12:23:29.043Z,9.90
2018-10-05T12:25:57.342Z,9.20
2018-10-05T12:28:25.674Z,8.90
2018-10-05T12:30:54.066Z,9.13
2018-10-05T12:33:22.446Z,9.60
2018-10-05T12:35:50.937Z,10.03
2018-10-05T12:38:19.284Z,9.10
2018-10-05T12:40:47.733Z,9.67
2018-10-05T12:43:16.039Z,10.43
2018-10-05T12:45:44.454Z,9.00
2018-10-05T12:48:12.732Z,8.33
2018-10-05T12:50:41.058Z,7.20
2018-10-05T12:53:09.342Z,6.57
2018-10-05T12:55:37.661Z,7.30
2018-10-05T12:58:06.026Z,7.73
2018-10-05T13:00:34.339Z,8.80
2018-10-05T13:03:02.642Z,9.47
2018-10-05T13:05:31.041Z,8.80
2018-10-05T13:07:59.361Z,7.63
2018-10-05T13:10:27.663Z,7.00
2018-10-05T13:12:56.122Z,6.90
2018-10-05T13:15:24.507Z,7.47
2018-10-05T13:17:52.839Z,8.03
2018-10-05T13:20:21.112Z,6.13
2018-10-05T13:22:49.388Z,6.70
2018-10-05T13:25:17.682Z,5.57
2018-10-05T13:27:45.984Z,5.43
2018-10-05T13:30:14.259Z,4.30
2018-10-05T13:32:42.549Z,4.67
2018-10-05T13:35:10.995Z,4.40
2018-10-05T13:37:39.286Z,4.70
2018-10-05T13:40:07.601Z,4.00
2018-10-05T13:42:35.864Z,4.97
2018-10-05T13:45:04.241Z,4.00
2018-10-05T13:47:32.510Z,3.93
2018-10-05T13:50:00.787Z,3.50
2018-10-05T13:52:29.188Z,3.77
2018-10-05T13:54:57.431Z,3.20
2018-10-05T13:57:25.982Z,4.20
2018-10-05T13:59:54.273Z,5.17
2018-10-05T14:02:22.648Z,3.10
2018-10-05T14:04:50.957Z,3.47
2018-10-05T14:07:19.324Z,3.70
2018-10-05T14:09:47.789Z,3.40
2018-10-05T14:12:16.092Z,2.53
2018-10-05T14:14:44.532Z,2.47
2018-10-05T14:17:12.891Z,2.47
2018-10-05T14:19:41.133Z,1.90
2018-10-05T14:22:09.475Z,3.90
2018-10-05T14:24:37.740Z,3.73
2018-10-05T14:27:06.071Z,4.23
2018-10-05T14:29:34.520Z,3.13
2018-10-05T14:32:02.824Z,3.00
2018-10-05T14:34:31.155Z,3.53
2018-10-05T14:36:59.482Z,3.00
2018-10-05T14:39:27.832Z,3.23
2018-10-05T14:41:56.180Z,3.20
2018-10-05T14:44:24.528Z,3.30
2018-10-05T14:46:52.825Z,3.60
2018-10-05T14:49:21.158Z,3.10
2018-10-05T14:51:49.387Z,3.13
2018-10-05T14:54:17.847Z,3.17
2018-10-05T14:56:46.096Z,2.90
2018-10-05T14:59:14.388Z,4.67
2018-10-05T15:01:42.743Z,3.83
2018-10-05T15:04:11.040Z,3.13
2018-10-05T15:06:39.446Z,3.30
2018-10-05T15:09:07.823Z,3.37
2018-10-05T15:11:36.110Z,3.20
2018-10-05T15:14:04.430Z,2.73
2018-10-05T15:16:32.732Z,2.97
2018-10-05T15:19:01.148Z,3.13
2018-10-05T15:21:29.567Z,3.37
2018-10-05T15:23:58.006Z,3.23
2018-10-05T15:26:26.326Z,2.77
2018-10-05T15:28:54.588Z,2.63
2018-10-05T15:31:23.085Z,3.73
2018-10-05T15:33:51.372Z,3.60
2018-10-05T15:36:19.619Z,3.00
2018-10-05T15:38:48.223Z,3.00
2018-10-05T15:41:16.471Z,2.80
2018-10-05T15:43:44.891Z,3.13
2018-10-05T15:46:23.198Z,3.70
2018-10-05T15:48:51.582Z,3.00
2018-10-05T15:51:19.836Z,3.70
2018-10-05T15:53:48.096Z,3.17
2018-10-05T15:56:16.423Z,3.40
2018-10-05T15:58:44.700Z,3.60
2018-10-05T16:01:13.094Z,3.07
2018-10-05T16:03:41.456Z,3.33
2018-10-05T16:06:09.755Z,3.70
2018-10-05T16:08:38.118Z,3.60
2018-10-05T16:11:06.431Z,3.33
2018-10-05T16:13:34.732Z,3.43
2018-10-05T16:16:02.997Z,3.40
2018-10-05T16:18:31.306Z,2.80
2018-10-05T16:20:59.624Z,3.60
2018-10-05T16:23:27.930Z,3.20
2018-10-05T16:25:56.272Z,3.63
2018-10-05T16:28:24.573Z,3.10
2018-10-05T16:30:52.909Z,3.50
2018-10-05T16:33:21.328Z,3.47
2018-10-05T16:35:49.781Z,3.60
2018-10-05T16:38:18.066Z,3.20
2018-10-05T16:40:46.337Z,3.20
2018-10-05T16:43:14.666Z,3.70
2018-10-05T16:45:42.945Z,3.67
2018-10-05T16:48:11.272Z,4.40
2018-10-05T16:50:39.585Z,3.43
2018-10-05T16:53:07.866Z,3.90
2018-10-05T16:55:36.209Z,3.43
2018-10-05T16:58:04.540Z,3.80
2018-10-05T17:00:32.835Z,4.20
2018-10-05T17:03:01.112Z,3.70
2018-10-05T17:05:29.384Z,3.57
2018-10-05T17:07:58.270Z,3.50
2018-10-05T17:10:26.747Z,4.20
2018-10-05T17:12:55.065Z,4.10
2018-10-05T17:15:23.566Z,4.27
2018-10-05T17:17:51.833Z,4.73
2018-10-05T17:20:20.149Z,4.10
2018-10-05T17:22:48.577Z,4.00
2018-10-05T17:25:16.921Z,4.20
2018-10-05T17:27:45.206Z,5.17
2018-10-05T17:30:13.567Z,4.50
2018-10-05T17:32:41.932Z,6.27
2018-10-05T17:35:10.291Z,6.73
2018-10-05T17:37:38.558Z,7.03
2018-10-05T17:40:07.589Z,7.70
2018-10-05T17:42:35.978Z,6.60
2018-10-05T17:45:04.415Z,7.23
2018-10-05T17:47:32.668Z,8.73
2018-10-05T17:50:00.964Z,8.77
2018-10-05T17:52:29.271Z,7.23
2018-10-05T17:54:57.641Z,8.30
2018-10-05T17:57:25.962Z,8.60
2018-10-05T17:59:54.299Z,7.77
2018-10-05T18:02:22.774Z,7.80
2018-10-05T18:04:51.084Z,8.43
2018-10-05T18:07:19.364Z,8.20
2018-10-05T18:09:47.823Z,8.07
2018-10-05T18:12:16.151Z,7.10
2018-10-05T18:14:44.539Z,7.37
2018-10-05T18:17:12.846Z,7.80
2018-10-05T18:19:41.093Z,6.37
2018-10-05T18:22:09.611Z,7.70
2018-10-05T18:24:37.920Z,7.27
2018-10-05T18:27:06.465Z,7.43
2018-10-05T18:29:35.047Z,7.77
2018-10-05T18:32:03.382Z,7.20
2018-10-05T18:34:31.649Z,6.63
2018-10-05T18:37:00.046Z,6.57
2018-10-05T18:39:28.348Z,7.30
2018-10-05T18:41:56.637Z,7.70
2018-10-05T18:44:24.952Z,7.17
2018-10-05T18:46:53.586Z,8.83
2018-10-05T18:49:21.916Z,8.50
2018-10-05T18:51:50.208Z,7.40
2018-10-05T18:54:18.681Z,7.00
2018-10-05T18:56:58.199Z,7.70
2018-10-05T18:59:26.550Z,6.77
2018-10-05T19:01:54.861Z,7.77
2018-10-05T19:04:23.130Z,7.43
2018-10-05T19:06:51.533Z,7.10
2018-10-05T19:09:19.950Z,8.73
2018-10-05T19:11:48.264Z,8.10
2018-10-05T19:14:16.531Z,36.07
2018-10-05T19:16:44.827Z,15.50
2018-10-05T19:19:13.217Z,14.20
2018-10-05T19:21:41.594Z,10.30
2018-10-05T19:24:09.947Z,8.90
2018-10-05T19:26:39.189Z,8.17
2018-10-05T19:29:07.516Z,7.90
2018-10-05T19:31:35.785Z,8.27
2018-10-05T19:34:04.177Z,9.00
2018-10-05T19:36:39.049Z,8.20
2018-10-05T19:39:09.777Z,8.40
2018-10-05T19:41:38.796Z,9.23
2018-10-05T19:44:07.605Z,9.87
2018-10-05T19:46:36.359Z,8.60
2018-10-05T19:49:04.693Z,8.43
2018-10-05T19:51:33.006Z,9.27
2018-10-05T19:54:01.279Z,9.03
2018-10-05T19:56:29.718Z,8.60
2018-10-05T19:58:58.014Z,9.10
2018-10-05T20:01:26.284Z,9.30
2018-10-05T20:03:54.691Z,10.13
2018-10-05T20:06:23.328Z,9.23
2018-10-05T20:08:51.700Z,9.77
2018-10-05T20:11:20.120Z,9.90
2018-10-05T20:13:48.405Z,10.63
2018-10-05T20:16:16.730Z,10.67
2018-10-05T20:18:45.049Z,11.63
2018-10-05T20:21:13.405Z,10.07
2018-10-05T20:23:41.668Z,10.90
2018-10-05T20:26:09.975Z,11.60
2018-10-05T20:28:38.341Z,10.47
2018-10-05T20:31:06.663Z,11.90
2018-10-05T20:33:35.086Z,9.80
2018-10-05T20:36:03.729Z,9.97
2018-10-05T20:38:31.918Z,10.13
2018-10-05T20:41:00.280Z,9.93
2018-10-05T20:43:28.585Z,10.63
2018-10-05T20:45:56.880Z,11.60
2018-10-05T20:48:25.213Z,9.70
2018-10-05T20:50:53.506Z,10.83
2018-10-05T20:53:21.793Z,9.90
2018-10-05T20:55:50.107Z,9.73
2018-10-05T20:58:18.474Z,11.03
2018-10-05T21:00:46.759Z,11.00
2018-10-05T21:03:15.036Z,10.37
2018-10-05T21:05:43.335Z,10.43
2018-10-05T21:08:11.626Z,10.40
2018-10-05T21:10:39.977Z,10.60
2018-10-05T21:13:08.288Z,10.70
2018-10-05T21:15:36.616Z,10.87
2018-10-05T21:18:04.938Z,10.10
2018-10-05T21:20:33.229Z,11.47
2018-10-05T21:23:01.493Z,10.77
2018-10-05T21:25:29.829Z,11.20
2018-10-05T21:27:58.183Z,11.03
2018-10-05T21:30:26.428Z,11.63
2018-10-05T21:32:54.977Z,12.20
2018-10-05T21:35:23.173Z,11.67
2018-10-05T21:37:51.981Z,11.13
2018-10-05T21:40:20.292Z,12.17
2018-10-05T21:42:48.598Z,11.37
2018-10-05T21:45:16.841Z,12.13
2018-10-05T21:47:45.166Z,11.90
2018-10-05T21:50:13.528Z,11.23
2018-10-05T21:52:41.816Z,12.57
2018-10-05T21:55:10.314Z,10.93
2018-10-05T21:57:38.725Z,10.63
2018-10-05T22:00:07.513Z,10.43
2018-10-05T22:02:36.725Z,11.90
2018-10-05T22:05:06.407Z,11.90
2018-10-05T22:07:34.966Z,10.07
2018-10-05T22:10:03.409Z,10.80
2018-10-05T22:12:32.073Z,10.50
2018-10-05T22:15:00.378Z,9.70
2018-10-05T22:17:28.984Z,10.53
2018-10-05T22:19:57.341Z,10.57
2018-10-05T22:22:25.762Z,11.83
2018-10-05T22:24:54.130Z,12.03
2018-10-05T22:27:22.434Z,11.00
2018-10-05T22:29:50.728Z,12.30
2018-10-05T22:32:18.996Z,11.13
2018-10-05T22:34:47.384Z,12.17
2018-10-05T22:37:15.708Z,11.27
2018-10-05T22:39:43.994Z,11.57
2018-10-05T22:42:12.439Z,11.27
2018-10-05T22:44:40.720Z,10.70
2018-10-05T22:47:09.020Z,12.17
2018-10-05T22:49:37.388Z,12.13
2018-10-05T22:52:05.816Z,12.43
2018-10-05T22:54:34.102Z,12.57
2018-10-05T22:57:02.377Z,11.40
2018-10-05T22:59:30.957Z,12.50
2018-10-05T23:02:00.291Z,11.70
2018-10-05T23:04:28.758Z,12.13
2018-10-05T23:06:57.099Z,12.80
2018-10-05T23:09:25.448Z,12.90
2018-10-05T23:11:53.823Z,11.47
2018-10-05T23:14:22.256Z,12.83
2018-10-05T23:16:50.593Z,12.00
2018-10-05T23:19:19.013Z,13.60
2018-10-05T23:21:47.375Z,12.13
2018-10-05T23:24:15.724Z,12.37
2018-10-05T23:26:44.095Z,13.47
2018-10-05T23:29:12.393Z,12.23
2018-10-05T23:31:40.753Z,12.40
2018-10-05T23:34:09.064Z,13.60
2018-10-05T23:36:37.330Z,11.67
2018-10-05T23:39:07.833Z,12.37
2018-10-05T23:41:36.233Z,12.70
2018-10-05T23:44:04.715Z,12.77
2018-10-05T23:46:33.103Z,12.60
2018-10-05T23:49:01.370Z,12.60
2018-10-05T23:51:29.725Z,12.40
2018-10-05T23:53:58.138Z,12.77
2018-10-05T23:56:26.502Z,12.17
2018-10-05T23:58:54.824Z,13.50
